createdAt,value
2023-04-23T00:02:23.751Z,97.26
2023-04-23T00:04:54.289Z,97.52
2023-04-23T00:07:22.499Z,97.04
2023-04-23T00:09:53.876Z,96.91
2023-04-23T00:12:22.229Z,96.88
2023-04-23T00:14:50.258Z,96.96
2023-04-23T00:17:18.185Z,97.02
2023-04-23T00:19:46.111Z,97.55
2023-04-23T00:22:14.519Z,98.40
2023-04-23T00:24:42.340Z,98.72
2023-04-23T00:27:11.667Z,98.89
2023-04-23T00:29:39.461Z,98.90
2023-04-23T00:32:09.098Z,99.33
2023-04-23T00:34:36.927Z,99.64
2023-04-23T00:37:06.776Z,100.00
2023-04-23T00:39:35.880Z,100.00
2023-04-23T00:42:10.534Z,100.00
2023-04-23T00:44:40.852Z,100.00
2023-04-23T00:47:08.886Z,100.00
2023-04-23T00:49:36.901Z,100.00
2023-04-23T00:52:05.150Z,100.00
2023-04-23T00:54:32.893Z,100.00
2023-04-23T00:57:01.000Z,100.00
2023-04-23T00:59:29.771Z,100.00
2023-04-23T01:01:59.869Z,100.00
2023-04-23T01:04:31.211Z,100.00
2023-04-23T01:07:00.551Z,100.00
2023-04-23T01:09:28.788Z,100.00
2023-04-23T01:11:58.718Z,100.00
2023-04-23T01:14:27.342Z,100.00
2023-04-23T01:16:56.301Z,100.00
2023-04-23T01:19:25.583Z,100.00
2023-04-23T01:21:53.447Z,100.00
2023-04-23T01:24:22.595Z,100.00
2023-04-23T01:26:51.562Z,100.00
2023-04-23T01:29:19.417Z,100.00
2023-04-23T01:31:48.494Z,100.00
2023-04-23T01:34:16.598Z,100.00
2023-04-23T01:36:46.609Z,100.00
2023-04-23T01:39:14.353Z,100.00
2023-04-23T01:41:43.595Z,100.00
2023-04-23T01:44:11.584Z,100.00
2023-04-23T01:46:39.420Z,100.00
2023-04-23T01:49:07.424Z,100.00
2023-04-23T01:51:35.828Z,100.00
2023-04-23T01:54:03.580Z,100.00
2023-04-23T01:56:33.415Z,100.00
2023-04-23T01:59:02.810Z,100.00
2023-04-23T02:01:44.151Z,100.00
2023-04-23T02:04:13.575Z,100.00
2023-04-23T02:06:42.790Z,100.00
2023-04-23T02:09:11.655Z,100.00
2023-04-23T02:11:39.749Z,100.00
2023-04-23T02:14:09.783Z,100.00
2023-04-23T02:16:37.782Z,100.00
2023-04-23T02:19:05.826Z,100.00
2023-04-23T02:21:33.641Z,100.00
2023-04-23T02:24:01.433Z,100.00
2023-04-23T02:26:29.749Z,100.00
2023-04-23T02:28:57.468Z,100.00
2023-04-23T02:31:26.760Z,100.00
2023-04-23T02:33:55.847Z,100.00
2023-04-23T02:36:23.662Z,100.00
2023-04-23T02:38:51.553Z,100.00
2023-04-23T02:41:19.314Z,100.00
2023-04-23T02:43:47.065Z,100.00
2023-04-23T02:46:14.803Z,100.00
2023-04-23T02:48:43.935Z,100.00
2023-04-23T02:51:13.377Z,100.00
2023-04-23T02:53:41.192Z,100.00
2023-04-23T02:56:08.958Z,100.00
2023-04-23T02:58:36.948Z,100.00
2023-04-23T03:01:05.337Z,100.00
2023-04-23T03:03:34.100Z,100.00
2023-04-23T03:06:07.790Z,100.00
2023-04-23T03:08:35.605Z,100.00
2023-04-23T03:11:03.295Z,100.00
2023-04-23T03:13:31.153Z,100.00
2023-04-23T03:15:58.896Z,100.00
2023-04-23T03:18:27.565Z,100.00
2023-04-23T03:20:56.946Z,100.00
2023-04-23T03:23:26.076Z,100.00
2023-04-23T03:25:53.758Z,100.00
2023-04-23T03:28:21.454Z,100.00
2023-04-23T03:30:49.193Z,100.00
2023-04-23T03:33:17.151Z,100.00
2023-04-23T03:35:45.026Z,100.00
2023-04-23T03:38:17.440Z,100.00
2023-04-23T03:40:46.787Z,100.00
2023-04-23T03:43:14.542Z,100.00
2023-04-23T03:46:00.719Z,100.00
2023-04-23T03:48:30.294Z,100.00
2023-04-23T03:50:58.789Z,100.00
2023-04-23T03:53:35.707Z,100.00
2023-04-23T03:56:25.148Z,100.00
2023-04-23T03:59:08.868Z,100.00
2023-04-23T04:01:37.077Z,100.00
2023-04-23T04:04:05.154Z,100.00
2023-04-23T04:06:33.977Z,100.00
2023-04-23T04:09:01.720Z,100.00
2023-04-23T04:11:31.499Z,100.00
2023-04-23T04:13:59.211Z,100.00
2023-04-23T04:16:26.933Z,100.00
2023-04-23T04:18:56.321Z,100.00
2023-04-23T04:21:24.406Z,100.00
2023-04-23T04:23:52.115Z,100.00
2023-04-23T04:26:20.448Z,100.00
2023-04-23T04:28:49.484Z,100.00
2023-04-23T04:31:17.287Z,100.00
2023-04-23T04:33:46.400Z,100.00
2023-04-23T04:36:14.603Z,100.00
2023-04-23T04:38:42.281Z,100.00
2023-04-23T04:41:11.474Z,100.00
2023-04-23T04:43:39.232Z,100.00
2023-04-23T04:46:11.723Z,100.00
2023-04-23T04:48:40.124Z,100.00
2023-04-23T04:51:07.984Z,100.00
2023-04-23T04:53:36.190Z,100.00
2023-04-23T04:56:03.930Z,100.00
2023-04-23T04:58:31.814Z,100.00
2023-04-23T05:01:00.298Z,100.00
2023-04-23T05:03:29.665Z,100.00
2023-04-23T05:05:58.856Z,100.00
2023-04-23T05:08:26.632Z,100.00
2023-04-23T05:10:54.866Z,100.00
2023-04-23T05:13:23.160Z,100.00
2023-04-23T05:15:50.816Z,100.00
2023-04-23T05:18:18.522Z,100.00
2023-04-23T05:20:47.615Z,100.00
2023-04-23T05:23:15.357Z,100.00
2023-04-23T05:25:43.050Z,100.00
2023-04-23T05:28:10.757Z,100.00
2023-04-23T05:30:38.851Z,100.00
2023-04-23T05:33:06.743Z,100.00
2023-04-23T05:35:34.510Z,100.00
2023-04-23T05:38:05.030Z,100.00
2023-04-23T05:40:32.894Z,100.00
2023-04-23T05:43:00.819Z,100.00
2023-04-23T05:45:28.948Z,100.00
2023-04-23T05:47:56.686Z,100.00
2023-04-23T05:50:24.663Z,100.00
2023-04-23T05:52:52.424Z,100.00
2023-04-23T05:55:23.880Z,100.00
2023-04-23T05:57:51.609Z,100.00
2023-04-23T06:00:19.471Z,100.00
2023-04-23T06:02:47.994Z,100.00
2023-04-23T06:05:16.595Z,100.00
2023-04-23T06:07:44.749Z,100.00
2023-04-23T06:10:13.228Z,100.00
2023-04-23T06:12:42.526Z,100.00
2023-04-23T06:15:11.412Z,100.00
2023-04-23T06:17:39.398Z,100.00
2023-04-23T06:20:09.035Z,100.00
2023-04-23T06:22:36.889Z,100.00
2023-04-23T06:25:05.190Z,100.00
2023-04-23T06:27:33.869Z,100.00
2023-04-23T06:30:10.478Z,100.00
2023-04-23T06:32:39.002Z,100.00
2023-04-23T06:35:08.474Z,100.00
2023-04-23T06:37:36.643Z,100.00
2023-04-23T06:40:04.790Z,100.00
2023-04-23T06:42:32.508Z,100.00
2023-04-23T06:45:21.525Z,100.00
2023-04-23T06:47:49.828Z,100.00
2023-04-23T06:50:18.229Z,100.00
2023-04-23T06:52:46.151Z,100.00
2023-04-23T06:55:14.009Z,100.00
2023-04-23T06:57:41.780Z,100.00
2023-04-23T07:00:11.763Z,100.00
2023-04-23T07:02:43.720Z,100.00
2023-04-23T07:05:11.747Z,100.00
2023-04-23T07:07:40.714Z,100.00
2023-04-23T07:10:10.191Z,100.00
2023-04-23T07:12:38.148Z,100.00
2023-04-23T07:15:07.716Z,100.00
2023-04-23T07:17:36.076Z,100.00
2023-04-23T07:20:06.640Z,100.00
2023-04-23T07:22:34.504Z,100.00
2023-04-23T07:25:02.599Z,100.00
2023-04-23T07:27:30.346Z,100.00
2023-04-23T07:29:58.580Z,100.00
2023-04-23T07:32:28.376Z,100.00
2023-04-23T07:34:56.634Z,100.00
2023-04-23T07:37:25.737Z,100.00
2023-04-23T07:39:54.012Z,100.00
2023-04-23T07:42:21.768Z,100.00
2023-04-23T07:44:49.572Z,100.00
2023-04-23T07:47:17.226Z,100.00
2023-04-23T07:49:45.028Z,100.00
2023-04-23T07:52:12.895Z,100.00
2023-04-23T07:54:42.036Z,100.00
2023-04-23T07:57:10.395Z,100.00
2023-04-23T07:59:39.501Z,100.00
2023-04-23T08:02:07.702Z,100.00
2023-04-23T08:04:35.676Z,100.00
2023-04-23T08:07:03.742Z,100.00
2023-04-23T08:09:31.716Z,100.00
2023-04-23T08:12:02.065Z,100.00
2023-04-23T08:14:29.773Z,100.00
2023-04-23T08:16:57.675Z,100.00
2023-04-23T08:19:25.862Z,100.00
2023-04-23T08:21:53.951Z,100.00
2023-04-23T08:24:21.776Z,100.00
2023-04-23T08:26:49.868Z,100.00
2023-04-23T08:29:19.046Z,100.00
2023-04-23T08:31:46.842Z,100.00
2023-04-23T08:34:15.041Z,100.00
2023-04-23T08:36:42.924Z,100.00
2023-04-23T08:39:10.806Z,100.00
2023-04-23T08:41:42.689Z,100.00
2023-04-23T08:44:14.886Z,100.00
2023-04-23T08:46:46.437Z,100.00
2023-04-23T08:49:16.142Z,100.00
2023-04-23T08:51:49.278Z,100.00
2023-04-23T08:54:23.516Z,100.00
2023-04-23T08:56:52.584Z,100.00
2023-04-23T08:59:23.055Z,100.00
2023-04-23T09:01:52.821Z,100.00
2023-04-23T09:04:21.131Z,100.00
2023-04-23T09:06:48.868Z,100.00
2023-04-23T09:09:17.976Z,100.00
2023-04-23T09:11:46.128Z,100.00
2023-04-23T09:14:14.290Z,100.00
2023-04-23T09:16:42.758Z,100.00
2023-04-23T09:19:12.618Z,100.00
2023-04-23T09:21:41.004Z,100.00
2023-04-23T09:24:12.432Z,100.00
2023-04-23T09:26:46.782Z,100.00
2023-04-23T09:29:17.488Z,100.00
2023-04-23T09:31:47.638Z,100.00
2023-04-23T09:34:18.508Z,100.00
2023-04-23T09:36:47.136Z,98.15
2023-04-23T09:39:15.436Z,98.38
2023-04-23T09:41:43.313Z,98.94
2023-04-23T09:44:12.398Z,98.45
2023-04-23T09:46:41.633Z,95.17
2023-04-23T09:49:10.564Z,91.79
2023-04-23T09:51:40.818Z,91.10
2023-04-23T09:54:13.346Z,90.99
2023-04-23T09:56:41.332Z,85.86
2023-04-23T09:59:32.488Z,85.65
2023-04-23T10:02:09.612Z,85.56
2023-04-23T10:04:37.544Z,82.52
2023-04-23T10:09:44.302Z,81.67
2023-04-23T10:12:28.961Z,81.75
2023-04-23T10:15:00.818Z,80.56
2023-04-23T10:17:28.585Z,80.13
2023-04-23T10:19:56.868Z,75.08
2023-04-23T10:22:29.558Z,72.37
2023-04-23T10:24:59.261Z,71.68
2023-04-23T10:27:40.274Z,69.51
2023-04-23T10:30:17.375Z,67.69
2023-04-23T10:32:46.102Z,69.64
2023-04-23T10:35:13.754Z,69.12
2023-04-23T10:37:43.782Z,61.94
2023-04-23T10:40:15.171Z,64.72
2023-04-23T10:42:45.401Z,64.92
2023-04-23T10:47:48.079Z,62.60
2023-04-23T10:50:24.389Z,62.84
2023-04-23T10:52:54.526Z,62.20
2023-04-23T10:55:24.421Z,63.48
2023-04-23T10:58:03.255Z,64.37
2023-04-23T11:00:45.487Z,62.77
2023-04-23T11:03:32.123Z,63.07
2023-04-23T11:06:02.918Z,56.79
2023-04-23T11:08:33.094Z,55.48
2023-04-23T11:11:02.423Z,55.83
2023-04-23T11:13:31.304Z,56.20
2023-04-23T11:16:15.591Z,54.83
2023-04-23T11:18:56.481Z,54.76
2023-04-23T11:21:24.109Z,55.98
2023-04-23T11:23:53.062Z,56.16
2023-04-23T11:26:22.524Z,57.54
2023-04-23T11:28:53.616Z,58.45
2023-04-23T11:31:21.351Z,58.41
2023-04-23T11:33:48.965Z,55.85
2023-04-23T11:36:16.935Z,55.16
2023-04-23T11:38:46.164Z,53.37
2023-04-23T11:41:15.408Z,53.54
2023-04-23T11:43:43.595Z,52.16
2023-04-23T11:46:11.261Z,52.14
2023-04-23T11:48:38.946Z,53.27
2023-04-23T11:51:06.673Z,52.05
2023-04-23T11:53:35.214Z,52.51
2023-04-23T11:56:02.952Z,53.70
2023-04-23T11:58:31.864Z,53.36
2023-04-23T12:01:00.702Z,50.52
2023-04-23T12:03:29.959Z,48.96
2023-04-23T12:05:57.831Z,49.91
2023-04-23T12:08:25.776Z,51.18
2023-04-23T12:10:55.035Z,52.83
2023-04-23T12:13:24.212Z,52.92
2023-04-23T12:15:56.526Z,53.46
2023-04-23T12:18:28.876Z,53.73
2023-04-23T12:20:57.490Z,49.23
2023-04-23T12:23:28.074Z,49.61
2023-04-23T12:25:56.659Z,50.24
2023-04-23T12:30:53.923Z,47.64
2023-04-23T12:33:21.889Z,46.42
2023-04-23T12:35:51.804Z,46.70
2023-04-23T12:38:24.515Z,46.64
2023-04-23T12:40:52.569Z,46.44
2023-04-23T12:43:20.231Z,47.40
2023-04-23T12:45:47.947Z,48.30
2023-04-23T12:48:16.983Z,46.94
2023-04-23T12:50:46.037Z,47.85
2023-04-23T12:53:14.080Z,48.72
2023-04-23T12:55:43.220Z,47.85
2023-04-23T12:58:10.888Z,47.48
2023-04-23T13:00:38.673Z,46.29
2023-04-23T13:03:06.429Z,43.76
2023-04-23T13:05:35.550Z,43.41
2023-04-23T13:08:03.149Z,39.95
2023-04-23T13:10:30.991Z,40.62
2023-04-23T13:12:58.660Z,40.96
2023-04-23T13:15:27.115Z,41.52
2023-04-23T13:17:54.948Z,39.83
2023-04-23T13:20:22.709Z,39.69
2023-04-23T13:22:51.713Z,39.34
2023-04-23T13:25:19.486Z,39.27
2023-04-23T13:27:47.122Z,39.70
2023-04-23T13:30:15.151Z,40.91
2023-04-23T13:32:42.803Z,41.42
2023-04-23T13:35:11.023Z,42.36
2023-04-23T13:37:41.101Z,42.61
2023-04-23T13:40:14.210Z,42.85
2023-04-23T13:42:41.820Z,43.38
2023-04-23T13:45:09.952Z,43.57
2023-04-23T13:47:37.648Z,41.38
2023-04-23T13:50:06.943Z,40.55
2023-04-23T13:52:34.845Z,40.94
2023-04-23T13:55:03.990Z,41.61
2023-04-23T14:00:00.616Z,42.13
2023-04-23T14:02:28.422Z,41.59
2023-04-23T14:04:56.278Z,40.68
2023-04-23T14:09:52.895Z,41.21
2023-04-23T14:12:20.782Z,41.19
2023-04-23T14:14:49.434Z,42.07
2023-04-23T14:17:18.404Z,40.95
2023-04-23T14:19:46.016Z,40.44
2023-04-23T14:22:13.965Z,40.62
2023-04-23T14:24:47.255Z,41.29
2023-04-23T14:27:14.982Z,42.52
2023-04-23T14:29:47.342Z,43.42
2023-04-23T14:32:15.057Z,44.55
2023-04-23T14:34:45.149Z,43.85
2023-04-23T14:37:12.901Z,44.56
2023-04-23T14:39:42.289Z,44.75
2023-04-23T14:42:10.463Z,44.53
2023-04-23T14:44:38.149Z,45.19
2023-04-23T14:47:08.081Z,45.84
2023-04-23T14:49:35.864Z,46.40
2023-04-23T14:52:04.965Z,46.32
2023-04-23T14:54:32.615Z,46.18
2023-04-23T14:57:00.540Z,46.86
2023-04-23T14:59:28.303Z,46.20
2023-04-23T15:01:56.609Z,47.79
2023-04-23T15:04:24.559Z,48.83
2023-04-23T15:06:52.257Z,47.69
2023-04-23T15:09:21.207Z,47.93
2023-04-23T15:11:48.883Z,48.27
2023-04-23T15:14:21.497Z,49.03
2023-04-23T15:16:50.052Z,50.22
2023-04-23T15:19:19.178Z,51.54
2023-04-23T15:21:47.265Z,51.88
2023-04-23T15:24:15.322Z,51.30
2023-04-23T15:26:45.825Z,51.31
2023-04-23T15:29:14.157Z,51.80
2023-04-23T15:31:42.609Z,52.02
2023-04-23T15:34:11.605Z,53.44
2023-04-23T15:36:39.330Z,53.08
2023-04-23T15:39:07.564Z,52.83
2023-04-23T15:41:39.418Z,53.10
2023-04-23T15:44:12.354Z,53.69
2023-04-23T15:46:40.798Z,53.32
2023-04-23T15:49:08.714Z,53.88
2023-04-23T15:51:36.701Z,53.96
2023-04-23T15:54:07.974Z,54.55
2023-04-23T15:56:35.912Z,54.05
2023-04-23T15:59:03.605Z,54.80
2023-04-23T16:01:32.684Z,55.17
2023-04-23T16:06:31.787Z,55.39
2023-04-23T16:08:59.505Z,56.28
2023-04-23T16:11:28.247Z,56.17
2023-04-23T16:13:57.063Z,55.29
2023-04-23T16:16:24.838Z,55.57
2023-04-23T16:18:55.689Z,55.33
2023-04-23T16:21:24.094Z,55.62
2023-04-23T16:23:52.047Z,54.63
2023-04-23T16:26:19.784Z,55.03
2023-04-23T16:28:52.227Z,54.70
2023-04-23T16:31:33.113Z,55.14
2023-04-23T16:34:02.271Z,55.56
2023-04-23T16:36:30.209Z,56.62
2023-04-23T16:38:58.082Z,56.83
2023-04-23T16:41:25.747Z,57.10
2023-04-23T16:43:53.520Z,57.74
2023-04-23T16:46:21.369Z,58.41
2023-04-23T16:48:49.116Z,59.01
2023-04-23T16:51:18.328Z,59.17
2023-04-23T16:53:45.966Z,59.07
2023-04-23T16:56:13.900Z,58.57
2023-04-23T16:58:41.698Z,58.43
2023-04-23T17:01:09.399Z,58.16
2023-04-23T17:03:37.376Z,57.69
2023-04-23T17:06:11.275Z,57.87
2023-04-23T17:08:40.936Z,58.67
2023-04-23T17:11:09.011Z,58.69
2023-04-23T17:13:37.548Z,58.46
2023-04-23T17:16:05.294Z,58.97
2023-04-23T17:18:33.352Z,59.26
2023-04-23T17:21:01.313Z,59.78
2023-04-23T17:23:28.973Z,59.64
2023-04-23T17:25:57.998Z,59.90
2023-04-23T17:28:25.644Z,60.29
2023-04-23T17:30:55.764Z,60.84
2023-04-23T17:33:24.389Z,60.93
2023-04-23T17:35:53.228Z,61.53
2023-04-23T17:38:21.320Z,62.12
2023-04-23T17:40:49.837Z,63.00
2023-04-23T17:43:19.053Z,63.64
2023-04-23T17:45:47.665Z,63.86
2023-04-23T17:48:16.441Z,63.91
2023-04-23T17:50:44.603Z,63.74
2023-04-23T17:53:12.264Z,64.49
2023-04-23T17:55:41.296Z,65.10
2023-04-23T17:58:09.990Z,65.97
2023-04-23T18:00:41.789Z,66.68
2023-04-23T18:03:11.258Z,67.21
2023-04-23T18:05:38.959Z,67.16
2023-04-23T18:08:07.748Z,67.40
2023-04-23T18:10:35.700Z,67.67
2023-04-23T18:13:04.761Z,68.12
2023-04-23T18:15:33.537Z,68.14
2023-04-23T18:18:02.573Z,68.04
2023-04-23T18:20:31.957Z,68.88
2023-04-23T18:22:59.631Z,69.42
2023-04-23T18:25:27.537Z,69.19
2023-04-23T18:27:55.190Z,68.95
2023-04-23T18:30:23.518Z,69.01
2023-04-23T18:33:00.654Z,68.67
2023-04-23T18:35:29.745Z,68.96
2023-04-23T18:38:06.684Z,69.33
2023-04-23T18:40:34.547Z,70.71
2023-04-23T18:43:02.676Z,71.53
2023-04-23T18:45:30.378Z,72.02
2023-04-23T18:47:59.463Z,72.46
2023-04-23T18:50:42.644Z,73.03
2023-04-23T18:53:10.409Z,72.82
2023-04-23T18:55:38.140Z,73.23
2023-04-23T18:58:05.821Z,73.34
2023-04-23T19:00:33.588Z,73.97
2023-04-23T19:03:06.500Z,74.44
2023-04-23T19:05:38.520Z,74.67
2023-04-23T19:08:07.177Z,75.39
2023-04-23T19:10:34.847Z,76.49
2023-04-23T19:13:02.489Z,77.06
2023-04-23T19:15:31.201Z,77.25
2023-04-23T19:17:59.834Z,77.61
2023-04-23T19:20:28.086Z,77.86
2023-04-23T19:22:57.226Z,77.79
2023-04-23T19:25:24.920Z,77.65
2023-04-23T19:27:52.682Z,77.32
2023-04-23T19:30:20.426Z,77.31
2023-04-23T19:32:48.113Z,75.96
2023-04-23T19:35:15.982Z,75.08
2023-04-23T19:37:43.635Z,75.19
2023-04-23T19:40:14.611Z,74.93
2023-04-23T19:42:42.268Z,74.47
2023-04-23T19:45:10.553Z,74.01
2023-04-23T19:47:40.022Z,73.87
2023-04-23T19:50:09.821Z,73.98
2023-04-23T19:52:37.568Z,74.25
2023-04-23T19:55:06.239Z,74.06
2023-04-23T19:57:35.603Z,74.06
2023-04-23T20:00:05.019Z,74.35
2023-04-23T20:02:34.245Z,74.66
2023-04-23T20:05:03.158Z,75.04
2023-04-23T20:07:30.938Z,75.43
2023-04-23T20:09:58.571Z,75.63
2023-04-23T20:12:26.272Z,75.68
2023-04-23T20:14:55.824Z,75.92
2023-04-23T20:17:23.717Z,76.11
2023-04-23T20:19:51.423Z,76.32
2023-04-23T20:22:19.282Z,76.72
2023-04-23T20:24:49.093Z,77.01
2023-04-23T20:27:17.250Z,77.47
2023-04-23T20:29:44.944Z,77.77
2023-04-23T20:32:14.184Z,78.38
2023-04-23T20:34:41.852Z,78.36
2023-04-23T20:37:10.330Z,78.33
2023-04-23T20:39:38.339Z,78.74
2023-04-23T20:42:07.091Z,79.23
2023-04-23T20:44:34.806Z,79.21
2023-04-23T20:47:05.686Z,79.36
2023-04-23T20:49:34.934Z,79.41
2023-04-23T20:52:02.708Z,79.71
2023-04-23T20:54:30.919Z,79.89
2023-04-23T20:56:58.642Z,80.09
2023-04-23T20:59:26.342Z,80.33
2023-04-23T21:01:54.176Z,80.80
2023-04-23T21:04:21.999Z,80.74
2023-04-23T21:06:51.524Z,80.85
2023-04-23T21:09:19.216Z,81.40
2023-04-23T21:11:46.904Z,81.52
2023-04-23T21:14:14.581Z,81.61
2023-04-23T21:16:42.212Z,82.01
2023-04-23T21:19:09.874Z,82.05
2023-04-23T21:21:37.525Z,82.28
2023-04-23T21:24:07.822Z,82.43
2023-04-23T21:26:35.463Z,82.78
2023-04-23T21:29:03.210Z,83.32
2023-04-23T21:31:42.145Z,83.70
2023-04-23T21:34:09.880Z,83.89
2023-04-23T21:36:37.718Z,84.08
2023-04-23T21:39:08.054Z,84.10
2023-04-23T21:41:35.867Z,84.21
2023-04-23T21:44:03.649Z,84.52
2023-04-23T21:46:32.164Z,84.51
2023-04-23T21:48:59.944Z,84.69
2023-04-23T21:51:28.071Z,85.10
2023-04-23T21:53:55.761Z,85.28
2023-04-23T21:56:24.790Z,85.54
2023-04-23T21:58:52.492Z,86.01
2023-04-23T22:01:20.378Z,86.16
2023-04-23T22:03:48.321Z,86.41
2023-04-23T22:06:17.483Z,86.91
2023-04-23T22:08:46.325Z,87.00
2023-04-23T22:11:14.658Z,86.96
2023-04-23T22:13:43.723Z,87.32
2023-04-23T22:16:24.581Z,87.59
2023-04-23T22:18:55.760Z,87.95
2023-04-23T22:21:23.600Z,88.34
2023-04-23T22:23:51.295Z,88.44
2023-04-23T22:26:18.910Z,88.94
2023-04-23T22:28:48.174Z,89.28
2023-04-23T22:31:15.937Z,89.71
2023-04-23T22:33:43.827Z,89.89
2023-04-23T22:36:11.552Z,90.07
2023-04-23T22:38:39.478Z,90.41
2023-04-23T22:41:07.828Z,90.87
2023-04-23T22:43:35.467Z,91.08
2023-04-23T22:46:04.642Z,91.03
2023-04-23T22:48:32.317Z,91.47
2023-04-23T22:51:00.019Z,91.71
2023-04-23T22:53:27.647Z,91.71
2023-04-23T22:55:55.278Z,91.74
2023-04-23T22:58:23.126Z,91.54
2023-04-23T23:00:51.462Z,91.53
2023-04-23T23:03:20.613Z,91.66
2023-04-23T23:05:48.491Z,91.67
2023-04-23T23:08:16.209Z,91.91
2023-04-23T23:10:43.874Z,92.13
2023-04-23T23:13:11.556Z,92.37
2023-04-23T23:15:39.245Z,92.41
2023-04-23T23:18:07.773Z,92.66
2023-04-23T23:20:36.852Z,92.92
2023-04-23T23:23:04.603Z,93.35
2023-04-23T23:25:32.667Z,93.98
2023-04-23T23:28:00.308Z,95.01
2023-04-23T23:30:27.939Z,95.69
2023-04-23T23:32:56.845Z,96.55
2023-04-23T23:35:24.548Z,97.09
2023-04-23T23:37:53.729Z,97.44
2023-04-23T23:40:21.622Z,98.39
2023-04-23T23:42:49.316Z,99.00
2023-04-23T23:45:17.078Z,99.46
2023-04-23T23:47:46.963Z,100.00
2023-04-23T23:50:14.747Z,100.00
2023-04-23T23:52:42.381Z,100.00
2023-04-23T23:55:11.951Z,100.00
2023-04-23T23:57:40.330Z,100.00
